Co Bluffs, Iowa
Current Conditions -  °F | °C
As of 10:52 AM on Friday 24 Oct 2014 (Local Time) from KOMA Reporting Station
Overcast Overcast  
Wind Chill: 64°   Ceiling: 25000
Heat Index: 64°   Visibility: 9mi
Dew Point: 59°   Wind: 8mph
Humidity: 84%   Direction: 190°S
Pressure: 29.95"   Gusts: NA
Location:  41.2617°N, 95.8608°W
Report Text: KOMA 241552Z 19007KT 9SM SCT012 OVC250 18/15 A2995 RMK AO2 SLP139 T01780150
Loading
Personal Weather Stations






























Interactive Weather Map
Tropical Storm Tracking
New forecast layout! Learn more

10-Day Weather Forecast

Advertisements
Track Severe Weather on mobile